createdAt,value
2023-05-09T00:00:09.957Z,14.6723
2023-05-09T00:01:11.816Z,14.9937
2023-05-09T00:02:14.529Z,15.6115
2023-05-09T00:03:16.793Z,13.0634
2023-05-09T00:04:19.277Z,14.7968
2023-05-09T00:05:21.245Z,12.1001
2023-05-09T00:06:23.892Z,12.3606
2023-05-09T00:07:25.814Z,14.5809
2023-05-09T00:08:28.144Z,13.8078
2023-05-09T00:09:30.539Z,13.4291
2023-05-09T00:10:32.847Z,12.5403
2023-05-09T00:11:35.199Z,16.2286
2023-05-09T00:12:37.503Z,15.7853
2023-05-09T00:13:39.870Z,14.7900
2023-05-09T00:14:42.179Z,14.1757
2023-05-09T00:15:44.619Z,13.1711
2023-05-09T00:16:46.901Z,13.2809
2023-05-09T00:17:49.225Z,12.4474
2023-05-09T00:18:51.500Z,11.6467
2023-05-09T00:19:53.983Z,11.9278
2023-05-09T00:20:56.271Z,11.2209
2023-05-09T00:21:58.606Z,12.5867
2023-05-09T00:23:00.919Z,13.1529
2023-05-09T00:24:03.184Z,13.3325
2023-05-09T00:25:05.627Z,14.3414
2023-05-09T00:26:07.878Z,12.2516
2023-05-09T00:27:10.241Z,13.3785
2023-05-09T00:28:12.533Z,13.0344
2023-05-09T00:29:14.949Z,13.7984
2023-05-09T00:30:17.596Z,13.1035
2023-05-09T00:31:19.533Z,14.0863
2023-05-09T00:32:21.896Z,14.5939
2023-05-09T00:33:24.355Z,14.6035
2023-05-09T00:34:26.752Z,17.6365
2023-05-09T00:35:28.889Z,14.7954
2023-05-09T00:36:31.566Z,13.0164
2023-05-09T00:37:33.583Z,13.4264
2023-05-09T00:38:36.000Z,14.4470
2023-05-09T00:39:38.472Z,14.2978
2023-05-09T00:40:41.639Z,13.4980
2023-05-09T00:41:42.910Z,13.2634
2023-05-09T00:42:45.264Z,11.8907
2023-05-09T00:43:47.849Z,12.0900
2023-05-09T00:44:50.260Z,14.5504
2023-05-09T00:45:52.567Z,13.3608
2023-05-09T00:46:54.735Z,13.2211
2023-05-09T00:47:57.128Z,13.2144
2023-05-09T00:48:59.272Z,13.3586
2023-05-09T00:50:02.089Z,14.1549
2023-05-09T00:51:03.950Z,12.6754
2023-05-09T00:52:06.337Z,13.2752
2023-05-09T00:53:08.887Z,14.1854
2023-05-09T00:54:10.968Z,14.3863
2023-05-09T00:55:13.756Z,12.0794
2023-05-09T00:56:15.919Z,12.1241
2023-05-09T00:57:17.948Z,13.0862
2023-05-09T00:58:20.713Z,13.3018
2023-05-09T00:59:23.285Z,14.1365
2023-05-09T01:00:25.024Z,14.5844
2023-05-09T01:01:27.345Z,12.0071
2023-05-09T01:02:29.857Z,14.2144
2023-05-09T01:03:32.116Z,13.9596
2023-05-09T01:04:34.290Z,14.2469
2023-05-09T01:05:36.672Z,12.5961
2023-05-09T01:06:39.251Z,12.4824
2023-05-09T01:07:41.415Z,14.6724
2023-05-09T01:08:43.726Z,14.7138
2023-05-09T01:09:45.977Z,12.6880
2023-05-09T01:10:48.447Z,14.2738
2023-05-09T01:11:50.712Z,12.2441
2023-05-09T01:12:53.048Z,12.7265
2023-05-09T01:13:55.603Z,12.8143
2023-05-09T01:14:57.691Z,13.3431
2023-05-09T01:16:00.411Z,14.3887
2023-05-09T01:17:02.574Z,14.4572
2023-05-09T01:18:05.257Z,14.7069
2023-05-09T01:19:07.680Z,17.1628
2023-05-09T01:20:09.373Z,14.8514
2023-05-09T01:21:11.778Z,17.1560
2023-05-09T01:22:14.231Z,16.8976
2023-05-09T01:23:17.273Z,14.2168
2023-05-09T01:24:19.839Z,14.8226
2023-05-09T01:25:21.334Z,15.2304
2023-05-09T01:26:23.686Z,14.6458
2023-05-09T01:27:26.430Z,15.1766
2023-05-09T01:28:28.096Z,16.7030
2023-05-09T01:29:30.395Z,14.4934
2023-05-09T01:30:33.527Z,13.8763
2023-05-09T01:31:36.737Z,13.2895
2023-05-09T01:32:37.866Z,15.1282
2023-05-09T01:33:39.795Z,15.0030
2023-05-09T01:34:42.086Z,14.0306
2023-05-09T01:35:44.410Z,14.0816
2023-05-09T01:36:46.746Z,16.2542
2023-05-09T01:37:49.249Z,14.6732
2023-05-09T01:38:51.553Z,14.5765
2023-05-09T01:39:54.128Z,13.1403
2023-05-09T01:40:56.220Z,14.2718
2023-05-09T01:41:58.423Z,12.3569
2023-05-09T01:43:00.819Z,16.1099
2023-05-09T01:44:03.328Z,12.8575
2023-05-09T01:45:05.440Z,12.5667
2023-05-09T01:46:07.877Z,13.0867
2023-05-09T01:47:10.138Z,13.0798
2023-05-09T01:48:12.462Z,14.8007
2023-05-09T01:49:14.802Z,15.5269
2023-05-09T01:50:17.379Z,14.6398
2023-05-09T01:51:19.622Z,15.2676
2023-05-09T01:52:21.784Z,15.5736
2023-05-09T01:53:24.216Z,15.9170
2023-05-09T01:54:26.935Z,15.5550
2023-05-09T01:55:28.804Z,15.3912
2023-05-09T01:56:31.210Z,15.1018
2023-05-09T01:57:33.508Z,17.8375
2023-05-09T01:58:36.312Z,14.7476
2023-05-09T01:59:38.233Z,16.8311
2023-05-09T02:00:40.570Z,17.3458
2023-05-09T02:01:42.886Z,16.8232
2023-05-09T02:02:45.390Z,13.7322
2023-05-09T02:03:47.573Z,14.8016
2023-05-09T02:04:49.873Z,17.9451
2023-05-09T02:05:52.250Z,16.3296
2023-05-09T02:06:54.578Z,15.4112
2023-05-09T02:07:56.962Z,14.1667
2023-05-09T02:08:59.200Z,15.6011
2023-05-09T02:10:01.653Z,14.8446
2023-05-09T02:11:03.893Z,15.2338
2023-05-09T02:12:06.234Z,14.7508
2023-05-09T02:13:08.577Z,15.3283
2023-05-09T02:14:11.045Z,14.6515
2023-05-09T02:15:13.390Z,14.9591
2023-05-09T02:16:15.932Z,14.3137
2023-05-09T02:17:18.222Z,14.2864
2023-05-09T02:18:20.292Z,12.2538
2023-05-09T02:19:22.612Z,12.6149
2023-05-09T02:20:24.910Z,13.8429
2023-05-09T02:21:29.120Z,13.1266
2023-05-09T02:22:29.696Z,14.8792
2023-05-09T02:23:31.951Z,13.9213
2023-05-09T02:24:34.350Z,14.2618
2023-05-09T02:25:36.655Z,12.5874
2023-05-09T02:26:39.543Z,12.2154
2023-05-09T02:27:41.317Z,14.5408
2023-05-09T02:28:43.657Z,12.3909
2023-05-09T02:29:45.963Z,14.0289
2023-05-09T02:30:48.397Z,15.0105
2023-05-09T02:31:50.758Z,13.8670
2023-05-09T02:32:53.081Z,13.1246
2023-05-09T02:33:55.515Z,14.8884
2023-05-09T02:34:57.620Z,14.8578
2023-05-09T02:36:00.206Z,13.9596
2023-05-09T02:37:02.451Z,12.6997
2023-05-09T02:38:04.631Z,13.6497
2023-05-09T02:39:07.321Z,14.5137
2023-05-09T02:40:09.885Z,14.3342
2023-05-09T02:41:11.705Z,13.0059
2023-05-09T02:42:14.026Z,13.9051
2023-05-09T02:43:16.746Z,12.8406
2023-05-09T02:44:18.673Z,15.1731
2023-05-09T02:45:21.027Z,15.4110
2023-05-09T02:46:23.750Z,15.1395
2023-05-09T02:47:25.694Z,14.2758
2023-05-09T02:48:28.036Z,14.2468
2023-05-09T02:49:32.426Z,15.8541
2023-05-09T02:50:32.751Z,13.4804
2023-05-09T02:51:35.219Z,14.6228
2023-05-09T02:52:37.437Z,12.8506
2023-05-09T02:53:39.794Z,14.4659
2023-05-09T02:54:42.098Z,14.9829
2023-05-09T02:55:44.408Z,15.6333
2023-05-09T02:56:46.830Z,15.3689
2023-05-09T02:57:51.994Z,16.9120
2023-05-09T02:58:51.567Z,14.6587
2023-05-09T02:59:53.854Z,13.9007
2023-05-09T03:00:56.114Z,13.8347
2023-05-09T03:01:58.434Z,13.2442
2023-05-09T03:03:00.859Z,14.4340
2023-05-09T03:04:03.079Z,13.7897
2023-05-09T03:05:05.410Z,14.2694
2023-05-09T03:06:07.771Z,13.7691
2023-05-09T03:07:10.088Z,15.6873
2023-05-09T03:08:12.412Z,13.8997
2023-05-09T03:09:14.809Z,14.7547
2023-05-09T03:10:17.301Z,14.2269
2023-05-09T03:11:19.564Z,13.8826
2023-05-09T03:12:21.852Z,14.3068
2023-05-09T03:13:24.202Z,15.8367
2023-05-09T03:14:26.539Z,15.2563
2023-05-09T03:15:28.775Z,14.8464
2023-05-09T03:16:31.187Z,15.3000
2023-05-09T03:17:33.476Z,14.8951
2023-05-09T03:18:35.759Z,15.7962
2023-05-09T03:19:38.121Z,14.3121
2023-05-09T03:20:40.464Z,15.0350
2023-05-09T03:21:42.881Z,17.1889
2023-05-09T03:22:45.125Z,16.3517
2023-05-09T03:23:47.501Z,15.3234
2023-05-09T03:24:49.801Z,15.9868
2023-05-09T03:25:52.112Z,13.9163
2023-05-09T03:26:54.461Z,15.1102
2023-05-09T03:27:56.880Z,15.4517
2023-05-09T03:28:59.135Z,16.4239
2023-05-09T03:30:01.454Z,16.4988
2023-05-09T03:31:03.949Z,15.7207
2023-05-09T03:32:06.236Z,16.0687
2023-05-09T03:33:08.526Z,15.1896
2023-05-09T03:34:10.794Z,16.7539
2023-05-09T03:35:13.476Z,15.6725
2023-05-09T03:36:15.484Z,14.6146
2023-05-09T03:37:17.817Z,15.4683
2023-05-09T03:38:20.132Z,14.1582
2023-05-09T03:39:22.471Z,15.8005
2023-05-09T03:40:24.971Z,15.4999
2023-05-09T03:41:27.145Z,16.1244
2023-05-09T03:42:29.509Z,15.7132
2023-05-09T03:43:31.919Z,16.7195
2023-05-09T03:44:34.151Z,17.6140
2023-05-09T03:45:36.609Z,15.3452
2023-05-09T03:46:38.896Z,17.0587
2023-05-09T03:47:41.217Z,18.4396
2023-05-09T03:48:43.511Z,17.9938
2023-05-09T03:49:45.847Z,15.9731
2023-05-09T03:50:48.203Z,13.9249
2023-05-09T03:51:50.548Z,15.1873
2023-05-09T03:52:52.843Z,18.3618
2023-05-09T03:53:55.434Z,18.6218
2023-05-09T03:54:57.752Z,18.2610
2023-05-09T03:55:59.871Z,17.6540
2023-05-09T03:57:02.249Z,17.6673
2023-05-09T03:58:04.597Z,15.3794
2023-05-09T03:59:06.950Z,17.1482
2023-05-09T04:00:09.426Z,18.1273
2023-05-09T04:01:11.681Z,15.8834
2023-05-09T04:02:14.840Z,18.2496
2023-05-09T04:03:16.252Z,16.4511
2023-05-09T04:04:19.587Z,16.5227
2023-05-09T04:05:20.879Z,16.9972
2023-05-09T04:06:23.200Z,17.1190
2023-05-09T04:07:25.555Z,16.5088
2023-05-09T04:08:27.881Z,18.5611
2023-05-09T04:09:30.338Z,17.0903
2023-05-09T04:10:32.536Z,17.8819
2023-05-09T04:11:35.250Z,16.9384
2023-05-09T04:12:37.227Z,16.9330
2023-05-09T04:13:39.728Z,19.1740
2023-05-09T04:14:41.980Z,19.0401
2023-05-09T04:15:44.229Z,19.6425
2023-05-09T04:16:46.584Z,19.0078
2023-05-09T04:17:51.305Z,21.5460
2023-05-09T04:18:51.226Z,21.6165
2023-05-09T04:19:53.570Z,21.2076
2023-05-09T04:20:55.894Z,21.8244
2023-05-09T04:21:58.230Z,20.9464
2023-05-09T04:23:00.628Z,22.7966
2023-05-09T04:24:02.908Z,19.8079
2023-05-09T04:25:05.299Z,20.3437
2023-05-09T04:26:07.617Z,22.6113
2023-05-09T04:27:09.947Z,22.1652
2023-05-09T04:28:12.259Z,22.7784
2023-05-09T04:29:14.643Z,23.6432
2023-05-09T04:30:17.046Z,20.2672
2023-05-09T04:31:19.402Z,21.5406
2023-05-09T04:32:21.603Z,23.6898
2023-05-09T04:33:23.960Z,20.4470
2023-05-09T04:34:26.292Z,19.8303
2023-05-09T04:35:28.660Z,20.5533
2023-05-09T04:36:30.966Z,21.2199
2023-05-09T04:37:33.306Z,19.9608
2023-05-09T04:38:35.657Z,20.7668
2023-05-09T04:39:37.973Z,22.6198
2023-05-09T04:40:40.324Z,24.2111
2023-05-09T04:41:42.649Z,24.1198
2023-05-09T04:42:45.024Z,21.3975
2023-05-09T04:43:47.297Z,22.7315
2023-05-09T04:44:49.658Z,23.2178
2023-05-09T04:45:52.066Z,23.5675
2023-05-09T04:46:54.280Z,24.1618
2023-05-09T04:47:56.691Z,25.3339
2023-05-09T04:48:59.682Z,25.0624
2023-05-09T04:50:01.314Z,23.9817
2023-05-09T04:51:03.641Z,25.4192
2023-05-09T04:52:06.003Z,23.9636
2023-05-09T04:53:08.316Z,25.7691
2023-05-09T04:54:10.651Z,25.5200
2023-05-09T04:55:13.260Z,26.8780
2023-05-09T04:56:15.329Z,26.1741
2023-05-09T04:57:18.844Z,25.1377
2023-05-09T04:58:19.999Z,23.7013
2023-05-09T04:59:22.327Z,22.7590
2023-05-09T05:00:24.712Z,22.0852
2023-05-09T05:01:27.120Z,23.5222
2023-05-09T05:02:29.358Z,26.8769
2023-05-09T05:03:31.671Z,28.2787
2023-05-09T05:04:34.061Z,25.0496
2023-05-09T05:05:37.412Z,23.3875
2023-05-09T05:06:38.685Z,24.6744
2023-05-09T05:07:41.033Z,24.4763
2023-05-09T05:08:43.359Z,25.3515
2023-05-09T05:09:45.779Z,24.8430
2023-05-09T05:10:48.246Z,23.1705
2023-05-09T05:11:59.448Z,28.1150
2023-05-09T05:12:52.740Z,27.5006
2023-05-09T05:13:55.043Z,28.0256
2023-05-09T05:14:57.388Z,30.8255
2023-05-09T05:15:59.783Z,31.6193
2023-05-09T05:17:02.136Z,26.1419
2023-05-09T05:18:04.410Z,28.4832
2023-05-09T05:19:06.733Z,27.1537
2023-05-09T05:20:09.065Z,26.6614
2023-05-09T05:21:11.413Z,25.6234
2023-05-09T05:22:13.732Z,27.6993
2023-05-09T05:23:16.061Z,26.7030
2023-05-09T05:24:18.396Z,27.3217
2023-05-09T05:25:20.743Z,31.2261
2023-05-09T05:26:23.084Z,29.8360
2023-05-09T05:27:25.396Z,28.5832
2023-05-09T05:28:27.738Z,29.9759
2023-05-09T05:29:30.067Z,28.3684
2023-05-09T05:30:34.141Z,25.9985
2023-05-09T05:31:34.803Z,30.0430
2023-05-09T05:32:37.173Z,26.2431
2023-05-09T05:33:39.419Z,29.0340
2023-05-09T05:34:41.734Z,27.6492
2023-05-09T05:35:44.086Z,26.4008
2023-05-09T05:36:46.432Z,28.9560
2023-05-09T05:37:49.217Z,26.8694
2023-05-09T05:38:51.092Z,28.7127
2023-05-09T05:39:53.429Z,25.0683
2023-05-09T05:40:55.778Z,27.8043
2023-05-09T05:41:58.487Z,30.4151
2023-05-09T05:43:00.459Z,26.3335
2023-05-09T05:44:02.773Z,27.5540
2023-05-09T05:45:05.144Z,27.6915
2023-05-09T05:46:07.523Z,25.8159
2023-05-09T05:47:09.788Z,25.4184
2023-05-09T05:48:12.234Z,28.1301
2023-05-09T05:49:14.465Z,27.7807
2023-05-09T05:50:16.794Z,29.2030
2023-05-09T05:51:19.122Z,28.1924
2023-05-09T05:52:21.460Z,28.8447
2023-05-09T05:53:23.784Z,28.3245
2023-05-09T05:54:26.122Z,31.1143
2023-05-09T05:55:28.480Z,31.2252
2023-05-09T05:56:30.788Z,30.7955
2023-05-09T05:57:33.119Z,30.2836
2023-05-09T05:58:35.449Z,29.8798
2023-05-09T05:59:37.770Z,32.2867
2023-05-09T06:00:40.136Z,35.2137
2023-05-09T06:01:42.482Z,35.4810
2023-05-09T06:02:44.878Z,35.8829
2023-05-09T06:03:47.355Z,33.6882
2023-05-09T06:04:49.449Z,37.6009
2023-05-09T06:05:51.821Z,37.2376
2023-05-09T06:06:54.114Z,43.4108
2023-05-09T06:07:56.519Z,35.3675
2023-05-09T06:08:58.785Z,41.1362
2023-05-09T06:10:01.110Z,39.3351
2023-05-09T06:11:03.506Z,38.4514
2023-05-09T06:12:05.964Z,41.0298
2023-05-09T06:13:08.141Z,36.7757
2023-05-09T06:14:10.462Z,38.5751
2023-05-09T06:15:13.107Z,41.2679
2023-05-09T06:16:19.679Z,42.2873
2023-05-09T06:17:18.440Z,44.4835
2023-05-09T06:18:19.792Z,40.5339
2023-05-09T06:19:22.175Z,39.0585
2023-05-09T06:20:24.458Z,41.5213
2023-05-09T06:21:26.869Z,40.4791
2023-05-09T06:22:29.147Z,40.1140
2023-05-09T06:23:31.475Z,42.5518
2023-05-09T06:24:36.343Z,37.0694
2023-05-09T06:25:36.192Z,41.5820
2023-05-09T06:26:38.497Z,40.2211
2023-05-09T06:27:40.821Z,42.3444
2023-05-09T06:28:43.166Z,39.1447
2023-05-09T06:29:45.500Z,37.2053
2023-05-09T06:30:47.837Z,34.6692
2023-05-09T06:31:50.553Z,37.1314
2023-05-09T06:32:52.595Z,33.8058
2023-05-09T06:33:54.831Z,35.7413
2023-05-09T06:34:57.250Z,38.6593
2023-05-09T06:35:59.511Z,39.0063
2023-05-09T06:37:01.868Z,36.4595
2023-05-09T06:38:04.179Z,39.3418
2023-05-09T06:39:06.536Z,33.2918
2023-05-09T06:40:08.888Z,31.8752
2023-05-09T06:41:11.194Z,33.3838
2023-05-09T06:42:13.537Z,33.8244
2023-05-09T06:43:15.859Z,35.7670
2023-05-09T06:44:18.190Z,34.5412
2023-05-09T06:45:20.763Z,31.4539
2023-05-09T06:46:22.975Z,32.5369
2023-05-09T06:47:25.249Z,32.8079
2023-05-09T06:48:27.527Z,34.3973
2023-05-09T06:49:29.875Z,34.0996
2023-05-09T06:50:33.016Z,37.2374
2023-05-09T06:51:34.546Z,36.5998
2023-05-09T06:52:36.878Z,34.6278
2023-05-09T06:53:39.209Z,38.5076
2023-05-09T06:54:41.586Z,37.0387
2023-05-09T06:55:43.936Z,40.7571
2023-05-09T06:56:46.270Z,39.6873
2023-05-09T06:57:48.611Z,37.7854
2023-05-09T06:58:50.944Z,43.1781
2023-05-09T06:59:53.272Z,38.8885
2023-05-09T07:00:55.619Z,45.2643
2023-05-09T07:01:58.129Z,49.1776
2023-05-09T07:03:00.345Z,42.8115
2023-05-09T07:04:02.619Z,44.4117
2023-05-09T07:05:04.989Z,45.6218
2023-05-09T07:06:07.385Z,44.4853
2023-05-09T07:07:09.640Z,42.0031
2023-05-09T07:08:11.976Z,44.3056
2023-05-09T07:09:14.304Z,41.8316
2023-05-09T07:10:16.638Z,34.2338
2023-05-09T07:11:18.984Z,35.3316
2023-05-09T07:12:21.305Z,38.0909
2023-05-09T07:13:23.743Z,50.4903
2023-05-09T07:14:25.970Z,47.7601
2023-05-09T07:15:40.602Z,33.2531
2023-05-09T07:16:30.692Z,33.3762
2023-05-09T07:17:33.009Z,40.3386
2023-05-09T07:18:35.321Z,36.6348
2023-05-09T07:19:37.662Z,40.5245
2023-05-09T07:20:39.982Z,43.9266
2023-05-09T07:21:42.415Z,39.6062
2023-05-09T07:22:44.735Z,41.5353
2023-05-09T07:23:47.005Z,36.6196
2023-05-09T07:24:49.318Z,36.1550
2023-05-09T07:25:51.657Z,38.0641
2023-05-09T07:26:53.996Z,38.9823
2023-05-09T07:27:56.339Z,39.9143
2023-05-09T07:28:58.671Z,39.8839
2023-05-09T07:30:01.000Z,36.6511
2023-05-09T07:31:03.337Z,38.6325
2023-05-09T07:32:05.708Z,34.1859
2023-05-09T07:33:08.240Z,34.2618
2023-05-09T07:34:10.368Z,39.2646
2023-05-09T07:35:12.985Z,41.6248
2023-05-09T07:36:15.013Z,35.6838
2023-05-09T07:37:17.492Z,37.3092
2023-05-09T07:38:19.698Z,39.4263
2023-05-09T07:39:22.064Z,36.4930
2023-05-09T07:40:24.368Z,32.0688
2023-05-09T07:41:26.843Z,30.2355
2023-05-09T07:42:29.044Z,31.3367
2023-05-09T07:43:31.372Z,31.2561
2023-05-09T07:44:33.725Z,30.2036
2023-05-09T07:45:36.043Z,35.6511
2023-05-09T07:46:38.402Z,34.4351
2023-05-09T07:47:40.759Z,36.1660
2023-05-09T07:48:43.070Z,29.8820
2023-05-09T07:49:45.417Z,28.7403
2023-05-09T07:50:47.740Z,30.3791
2023-05-09T07:51:50.092Z,31.5054
2023-05-09T07:52:52.530Z,28.4684
2023-05-09T07:53:54.755Z,32.9816
2023-05-09T07:54:57.114Z,34.7488
2023-05-09T07:55:59.437Z,32.4948
2023-05-09T07:57:01.776Z,31.2212
2023-05-09T07:58:04.100Z,32.0990
2023-05-09T07:59:06.458Z,34.0326
2023-05-09T08:00:08.813Z,30.8867
2023-05-09T08:01:11.148Z,30.0027
2023-05-09T08:02:13.503Z,31.0380
2023-05-09T08:03:16.032Z,27.8450
2023-05-09T08:04:18.181Z,28.3466
2023-05-09T08:05:20.975Z,33.8643
2023-05-09T08:06:22.849Z,29.5588
2023-05-09T08:07:25.169Z,27.9598
2023-05-09T08:08:27.529Z,23.6543
2023-05-09T08:09:29.864Z,25.2366
2023-05-09T08:10:32.329Z,20.1709
2023-05-09T08:11:34.553Z,26.2913
2023-05-09T08:12:36.895Z,22.8984
2023-05-09T08:13:39.346Z,21.9632
2023-05-09T08:14:41.556Z,23.1467
2023-05-09T08:15:43.922Z,24.5726
2023-05-09T08:16:46.248Z,25.5177
2023-05-09T08:17:48.705Z,23.3547
2023-05-09T08:18:50.925Z,23.5297
2023-05-09T08:19:53.285Z,22.2184
2023-05-09T08:20:55.596Z,22.7505
2023-05-09T08:21:57.962Z,23.2168
2023-05-09T08:23:00.303Z,20.4104
2023-05-09T08:24:02.739Z,20.2979
2023-05-09T08:25:04.970Z,16.8123
2023-05-09T08:26:07.307Z,18.7017
2023-05-09T08:27:09.661Z,20.2615
2023-05-09T08:28:12.014Z,17.7752
2023-05-09T08:29:14.337Z,18.3139
2023-05-09T08:30:16.748Z,16.7611
2023-05-09T08:31:19.060Z,15.2253
2023-05-09T08:32:21.387Z,15.2103
2023-05-09T08:33:23.749Z,14.9415
2023-05-09T08:34:26.058Z,18.6581
2023-05-09T08:35:28.401Z,17.2300
2023-05-09T08:36:30.758Z,14.8778
2023-05-09T08:37:33.088Z,15.6791
2023-05-09T08:38:35.487Z,16.2172
2023-05-09T08:39:37.869Z,14.8473
2023-05-09T08:40:40.127Z,13.7820
2023-05-09T08:41:42.525Z,13.9495
2023-05-09T08:42:44.863Z,14.6143
2023-05-09T08:43:47.210Z,13.8524
2023-05-09T08:44:49.507Z,14.2346
2023-05-09T08:45:51.872Z,13.3766
2023-05-09T08:46:54.303Z,15.2472
2023-05-09T08:47:56.558Z,16.0966
2023-05-09T08:48:58.930Z,13.8098
2023-05-09T08:50:01.230Z,14.1628
2023-05-09T08:51:03.581Z,13.7095
2023-05-09T08:52:05.986Z,15.2929
2023-05-09T08:53:08.280Z,15.1498
2023-05-09T08:54:10.655Z,15.2655
2023-05-09T08:55:13.096Z,15.6015
2023-05-09T08:56:15.298Z,14.6632
2023-05-09T08:57:17.664Z,15.8508
2023-05-09T08:58:20.005Z,17.3671
2023-05-09T08:59:22.396Z,18.9313
2023-05-09T09:00:24.760Z,17.5443
2023-05-09T09:01:27.102Z,18.0729
2023-05-09T09:02:29.429Z,18.8880
2023-05-09T09:03:31.717Z,18.8355
2023-05-09T09:04:34.134Z,18.9625
2023-05-09T09:05:41.964Z,18.2326
2023-05-09T09:06:38.795Z,21.5022
2023-05-09T09:07:41.103Z,23.2186
2023-05-09T09:08:43.464Z,22.4869
2023-05-09T09:09:45.813Z,22.7364
2023-05-09T09:10:48.254Z,22.2784
2023-05-09T09:11:50.479Z,25.4536
2023-05-09T09:12:52.848Z,24.8260
2023-05-09T09:13:55.191Z,21.8381
2023-05-09T09:14:57.531Z,22.7222
2023-05-09T09:16:00.141Z,18.7068
2023-05-09T09:17:02.209Z,17.8488
2023-05-09T09:18:07.535Z,20.0699
2023-05-09T09:19:06.899Z,23.4888
2023-05-09T09:20:09.268Z,22.4938
2023-05-09T09:21:11.729Z,20.8435
2023-05-09T09:22:13.965Z,20.8252
2023-05-09T09:23:16.278Z,21.0586
2023-05-09T09:24:18.641Z,18.9518
2023-05-09T09:25:20.995Z,18.7057
2023-05-09T09:26:23.425Z,22.2365
2023-05-09T09:27:25.676Z,19.3292
2023-05-09T09:28:28.030Z,20.9272
2023-05-09T09:29:30.383Z,17.9316
2023-05-09T09:30:32.714Z,17.4254
2023-05-09T09:31:35.100Z,18.2965
2023-05-09T09:32:37.487Z,20.3471
2023-05-09T09:33:39.759Z,19.6902
2023-05-09T09:34:42.155Z,16.7787
2023-05-09T09:35:44.453Z,18.5812
2023-05-09T09:36:46.815Z,17.7011
2023-05-09T09:37:49.154Z,17.3719
2023-05-09T09:38:51.493Z,16.8010
2023-05-09T09:39:53.866Z,15.5923
2023-05-09T09:40:56.242Z,14.0354
2023-05-09T09:41:58.625Z,15.9789
2023-05-09T09:43:00.882Z,16.4009
2023-05-09T09:44:03.233Z,14.6941
2023-05-09T09:45:05.589Z,13.8895
2023-05-09T09:46:07.934Z,16.0439
2023-05-09T09:47:10.272Z,16.3193
2023-05-09T09:48:12.685Z,17.2116
2023-05-09T09:49:15.007Z,13.8083
2023-05-09T09:50:17.463Z,13.5535
2023-05-09T09:51:19.667Z,13.1043
2023-05-09T09:52:22.022Z,11.2440
2023-05-09T09:53:24.367Z,12.8895
2023-05-09T09:54:26.740Z,12.3889
2023-05-09T09:55:29.088Z,12.8632
2023-05-09T09:56:31.428Z,12.7142
2023-05-09T09:57:33.863Z,12.0079
2023-05-09T09:58:36.121Z,13.4147
2023-05-09T09:59:38.521Z,12.6603
2023-05-09T10:00:40.866Z,12.4357
2023-05-09T10:01:43.244Z,11.4298
2023-05-09T10:02:45.557Z,12.5092
2023-05-09T10:03:47.956Z,11.7515
2023-05-09T10:04:50.247Z,12.2896
2023-05-09T10:05:52.582Z,13.8966
2023-05-09T10:06:54.958Z,15.0345
2023-05-09T10:07:57.275Z,12.2520
2023-05-09T10:08:59.645Z,12.1983
2023-05-09T10:10:02.039Z,11.2062
2023-05-09T10:11:04.340Z,10.9196
2023-05-09T10:12:06.703Z,11.2642
2023-05-09T10:13:09.158Z,12.2453
2023-05-09T10:14:11.383Z,12.2804
2023-05-09T10:15:13.756Z,11.9685
2023-05-09T10:16:16.193Z,11.8853
2023-05-09T10:17:18.507Z,10.8807
2023-05-09T10:18:20.970Z,9.7222
2023-05-09T10:19:23.134Z,9.4727
2023-05-09T10:20:25.529Z,9.1452
2023-05-09T10:21:27.827Z,8.4665
2023-05-09T10:22:30.173Z,7.8608
2023-05-09T10:23:32.546Z,7.7059
2023-05-09T10:24:34.908Z,10.6821
2023-05-09T10:25:37.263Z,11.3494
2023-05-09T10:26:39.577Z,13.8244
2023-05-09T10:27:41.942Z,10.2014
2023-05-09T10:28:44.378Z,11.2576
2023-05-09T10:29:46.665Z,10.8947
2023-05-09T10:30:49.030Z,11.4225
2023-05-09T10:31:51.466Z,11.7080
2023-05-09T10:32:53.722Z,11.0339
2023-05-09T10:33:56.079Z,11.4432
2023-05-09T10:34:58.393Z,11.9945
2023-05-09T10:36:00.755Z,11.6738
2023-05-09T10:37:03.118Z,10.7873
2023-05-09T10:38:05.462Z,10.9461
2023-05-09T10:39:07.798Z,10.7755
2023-05-09T10:40:10.149Z,10.5200
2023-05-09T10:41:12.496Z,13.6357
2023-05-09T10:42:14.864Z,15.5950
2023-05-09T10:43:17.216Z,11.8202
2023-05-09T10:44:19.659Z,11.0060
2023-05-09T10:45:21.893Z,12.7786
2023-05-09T10:46:24.363Z,11.7127
2023-05-09T10:47:51.445Z,12.7320
2023-05-09T10:48:28.999Z,13.0219
2023-05-09T10:49:31.351Z,13.8506
2023-05-09T10:50:33.702Z,13.5979
2023-05-09T10:51:36.036Z,13.0301
2023-05-09T10:52:38.366Z,10.8424
2023-05-09T10:53:40.749Z,12.2918
2023-05-09T10:54:43.488Z,12.1083
2023-05-09T10:55:45.428Z,11.6959
2023-05-09T10:56:47.772Z,13.9707
2023-05-09T10:57:50.130Z,12.9775
2023-05-09T10:58:52.480Z,13.3245
2023-05-09T10:59:55.009Z,14.3181
2023-05-09T11:00:57.445Z,14.4307
2023-05-09T11:01:59.712Z,12.9238
2023-05-09T11:03:02.095Z,13.0128
2023-05-09T11:04:04.341Z,13.1907
2023-05-09T11:05:06.690Z,14.0482
2023-05-09T11:06:08.999Z,15.0992
2023-05-09T11:07:11.376Z,12.8916
2023-05-09T11:08:13.717Z,13.3456
2023-05-09T11:09:16.074Z,13.7514
2023-05-09T11:10:18.523Z,15.4981
2023-05-09T11:11:20.769Z,13.4342
2023-05-09T11:12:23.123Z,17.0924
2023-05-09T11:13:25.536Z,16.4968
2023-05-09T11:14:27.799Z,15.0310
2023-05-09T11:15:30.337Z,14.7958
2023-05-09T11:16:32.519Z,14.3267
2023-05-09T11:17:34.924Z,14.2823
2023-05-09T11:18:37.274Z,14.7380
2023-05-09T11:19:39.568Z,16.4508
2023-05-09T11:20:41.978Z,17.7167
2023-05-09T11:21:44.276Z,15.2422
2023-05-09T11:22:46.632Z,15.8835
2023-05-09T11:23:48.931Z,13.8559
2023-05-09T11:24:51.281Z,15.1068
2023-05-09T11:25:53.667Z,15.9117
2023-05-09T11:26:56.143Z,13.9742
2023-05-09T11:27:58.346Z,15.8433
2023-05-09T11:29:00.702Z,14.6835
2023-05-09T11:30:03.052Z,18.8735
2023-05-09T11:31:05.489Z,18.8923
2023-05-09T11:32:07.944Z,16.7762
2023-05-09T11:33:10.090Z,15.5637
2023-05-09T11:34:12.410Z,17.8939
2023-05-09T11:35:15.366Z,16.2476
2023-05-09T11:36:17.165Z,17.7258
2023-05-09T11:37:19.554Z,18.3130
2023-05-09T11:38:21.843Z,21.5729
2023-05-09T11:39:24.190Z,20.9505
2023-05-09T11:40:26.505Z,18.3982
2023-05-09T11:41:29.006Z,18.0552
2023-05-09T11:42:31.230Z,20.2546
2023-05-09T11:43:33.609Z,19.5436
2023-05-09T11:44:35.934Z,20.5901
2023-05-09T11:45:38.325Z,15.7539
2023-05-09T11:46:40.658Z,17.9985
2023-05-09T11:47:43.048Z,22.1923
2023-05-09T11:48:45.483Z,20.5905
2023-05-09T11:49:49.964Z,21.0750
2023-05-09T11:50:50.080Z,21.3604
2023-05-09T11:51:52.320Z,21.3621
2023-05-09T11:52:54.700Z,21.8645
2023-05-09T11:53:57.030Z,19.6631
2023-05-09T11:54:59.523Z,19.7446
2023-05-09T11:56:02.160Z,20.1000
2023-05-09T11:57:04.126Z,19.4725
2023-05-09T11:58:06.563Z,23.5319
2023-05-09T11:59:08.766Z,21.3083
2023-05-09T12:00:11.229Z,24.0502
2023-05-09T12:01:13.587Z,22.0454
2023-05-09T12:02:15.871Z,23.6235
2023-05-09T12:03:18.489Z,22.1608
2023-05-09T12:04:20.472Z,23.6154
2023-05-09T12:05:23.093Z,22.7726
2023-05-09T12:06:26.254Z,20.0626
2023-05-09T12:07:27.530Z,19.5291
2023-05-09T12:08:29.938Z,24.5992
2023-05-09T12:09:32.199Z,21.6521
2023-05-09T12:10:34.542Z,19.7494
2023-05-09T12:11:37.189Z,20.6920
2023-05-09T12:12:39.284Z,21.4865
2023-05-09T12:13:41.594Z,19.1946
2023-05-09T12:14:44.855Z,18.2957
2023-05-09T12:15:46.373Z,18.2415
2023-05-09T12:16:48.674Z,17.0421
2023-05-09T12:17:52.103Z,18.6730
2023-05-09T12:18:53.333Z,19.8851
2023-05-09T12:19:55.635Z,20.8690
2023-05-09T12:20:57.985Z,22.9918
2023-05-09T12:22:00.321Z,19.3673
2023-05-09T12:23:02.697Z,18.0431
2023-05-09T12:24:05.044Z,19.9364
2023-05-09T12:25:07.447Z,20.6037
2023-05-09T12:26:09.724Z,19.1730
2023-05-09T12:27:12.209Z,18.0559
2023-05-09T12:28:14.840Z,18.6526
2023-05-09T12:29:17.089Z,19.6141
2023-05-09T12:30:19.172Z,21.3877
2023-05-09T12:31:21.541Z,18.7623
2023-05-09T12:32:23.801Z,22.0808
2023-05-09T12:33:26.828Z,18.9146